sensor_id;sensor_type;location;lat;lon;timestamp;P1;durP1;ratioP1;P2;durP2;ratioP2
57599;SDS011;43426;43.594;24.334;2023-05-29T00:01:58;11.10;;;6.68;;
57599;SDS011;43426;43.594;24.334;2023-05-29T00:06:48;11.55;;;7.10;;
57599;SDS011;43426;43.594;24.334;2023-05-29T00:11:40;6.90;;;6.30;;
57599;SDS011;43426;43.594;24.334;2023-05-29T00:16:31;8.27;;;5.85;;
57599;SDS011;43426;43.594;24.334;2023-05-29T00:18:56;11.88;;;6.15;;
57599;SDS011;43426;43.594;24.334;2023-05-29T00:21:22;8.48;;;6.57;;
57599;SDS011;43426;43.594;24.334;2023-05-29T00:26:16;13.88;;;6.10;;
57599;SDS011;43426;43.594;24.334;2023-05-29T00:28:42;11.07;;;6.97;;
57599;SDS011;43426;43.594;24.334;2023-05-29T00:33:32;9.10;;;6.30;;
57599;SDS011;43426;43.594;24.334;2023-05-29T00:38:23;10.80;;;6.65;;
57599;SDS011;43426;43.594;24.334;2023-05-29T00:43:14;10.32;;;6.45;;
57599;SDS011;43426;43.594;24.334;2023-05-29T00:48:05;10.07;;;6.30;;
57599;SDS011;43426;43.594;24.334;2023-05-29T00:50:31;12.77;;;6.55;;
57599;SDS011;43426;43.594;24.334;2023-05-29T00:55:25;6.45;;;5.88;;
57599;SDS011;43426;43.594;24.334;2023-05-29T01:00:16;10.13;;;6.80;;
57599;SDS011;43426;43.594;24.334;2023-05-29T01:02:43;7.25;;;6.40;;
57599;SDS011;43426;43.594;24.334;2023-05-29T01:05:11;11.73;;;6.20;;
57599;SDS011;43426;43.594;24.334;2023-05-29T01:07:37;7.88;;;7.13;;
57599;SDS011;43426;43.594;24.334;2023-05-29T01:10:04;6.85;;;6.30;;
57599;SDS011;43426;43.594;24.334;2023-05-29T01:18:02;13.27;;;7.53;;
57599;SDS011;43426;43.594;24.334;2023-05-29T01:29:13;11.70;;;7.00;;
57599;SDS011;43426;43.594;24.334;2023-05-29T01:31:41;11.77;;;7.05;;
57599;SDS011;43426;43.594;24.334;2023-05-29T01:34:08;7.38;;;6.57;;
57599;SDS011;43426;43.594;24.334;2023-05-29T01:39:00;8.85;;;6.20;;
57599;SDS011;43426;43.594;24.334;2023-05-29T01:43:52;7.55;;;6.72;;
57599;SDS011;43426;43.594;24.334;2023-05-29T01:46:18;11.65;;;6.63;;
57599;SDS011;43426;43.594;24.334;2023-05-29T01:48:45;12.27;;;6.50;;
57599;SDS011;43426;43.594;24.334;2023-05-29T01:53:40;8.25;;;6.25;;
57599;SDS011;43426;43.594;24.334;2023-05-29T01:56:06;7.47;;;6.43;;
57599;SDS011;43426;43.594;24.334;2023-05-29T01:58:33;13.55;;;6.63;;
57599;SDS011;43426;43.594;24.334;2023-05-29T02:01:01;12.23;;;6.90;;
57599;SDS011;43426;43.594;24.334;2023-05-29T02:03:26;7.25;;;5.95;;
57599;SDS011;43426;43.594;24.334;2023-05-29T02:05:56;10.90;;;6.25;;
57599;SDS011;43426;43.594;24.334;2023-05-29T02:08:22;6.93;;;5.57;;
57599;SDS011;43426;43.594;24.334;2023-05-29T02:13:13;8.75;;;5.82;;
57599;SDS011;43426;43.594;24.334;2023-05-29T02:15:38;8.07;;;5.90;;
57599;SDS011;43426;43.594;24.334;2023-05-29T02:18:04;13.15;;;6.07;;
57599;SDS011;43426;43.594;24.334;2023-05-29T02:20:29;7.60;;;5.90;;
57599;SDS011;43426;43.594;24.334;2023-05-29T02:22:57;7.40;;;5.80;;
57599;SDS011;43426;43.594;24.334;2023-05-29T02:25:22;8.43;;;5.95;;
57599;SDS011;43426;43.594;24.334;2023-05-29T02:30:13;14.63;;;6.32;;
57599;SDS011;43426;43.594;24.334;2023-05-29T02:32:41;10.23;;;6.57;;
57599;SDS011;43426;43.594;24.334;2023-05-29T02:37:32;7.30;;;6.60;;
57599;SDS011;43426;43.594;24.334;2023-05-29T02:39:57;11.27;;;8.15;;
57599;SDS011;43426;43.594;24.334;2023-05-29T02:42:23;13.27;;;7.05;;
57599;SDS011;43426;43.594;24.334;2023-05-29T02:47:13;7.35;;;6.65;;
57599;SDS011;43426;43.594;24.334;2023-05-29T02:52:04;9.93;;;7.10;;
57599;SDS011;43426;43.594;24.334;2023-05-29T02:56:55;9.10;;;7.43;;
57599;SDS011;43426;43.594;24.334;2023-05-29T02:59:21;10.05;;;7.18;;
57599;SDS011;43426;43.594;24.334;2023-05-29T03:04:13;9.10;;;7.85;;
57599;SDS011;43426;43.594;24.334;2023-05-29T03:09:03;16.33;;;7.28;;
57599;SDS011;43426;43.594;24.334;2023-05-29T03:11:32;7.82;;;7.03;;
57599;SDS011;43426;43.594;24.334;2023-05-29T03:14:00;10.93;;;7.30;;
57599;SDS011;43426;43.594;24.334;2023-05-29T03:18:54;9.80;;;7.25;;
57599;SDS011;43426;43.594;24.334;2023-05-29T03:23:46;9.35;;;6.97;;
57599;SDS011;43426;43.594;24.334;2023-05-29T03:28:37;6.45;;;5.85;;
57599;SDS011;43426;43.594;24.334;2023-05-29T03:33:28;7.95;;;7.15;;
57599;SDS011;43426;43.594;24.334;2023-05-29T03:35:54;12.10;;;7.65;;
57599;SDS011;43426;43.594;24.334;2023-05-29T03:38:21;7.43;;;6.70;;
57599;SDS011;43426;43.594;24.334;2023-05-29T03:43:12;8.25;;;7.47;;
57599;SDS011;43426;43.594;24.334;2023-05-29T03:48:02;10.30;;;6.43;;
57599;SDS011;43426;43.594;24.334;2023-05-29T03:52:53;8.65;;;6.55;;
57599;SDS011;43426;43.594;24.334;2023-05-29T03:57:44;8.98;;;8.07;;
57599;SDS011;43426;43.594;24.334;2023-05-29T04:02:36;7.67;;;7.07;;
57599;SDS011;43426;43.594;24.334;2023-05-29T04:05:03;7.85;;;7.15;;
57599;SDS011;43426;43.594;24.334;2023-05-29T04:07:31;9.20;;;6.90;;
57599;SDS011;43426;43.594;24.334;2023-05-29T04:12:22;6.97;;;5.88;;
57599;SDS011;43426;43.594;24.334;2023-05-29T04:17:13;7.05;;;6.55;;
57599;SDS011;43426;43.594;24.334;2023-05-29T04:22:03;6.47;;;5.97;;
57599;SDS011;43426;43.594;24.334;2023-05-29T04:29:21;6.50;;;6.00;;
57599;SDS011;43426;43.594;24.334;2023-05-29T04:34:12;8.02;;;7.00;;
57599;SDS011;43426;43.594;24.334;2023-05-29T04:36:42;7.35;;;6.70;;
57599;SDS011;43426;43.594;24.334;2023-05-29T04:39:08;7.25;;;6.65;;
57599;SDS011;43426;43.594;24.334;2023-05-29T04:44:00;7.75;;;6.85;;
57599;SDS011;43426;43.594;24.334;2023-05-29T04:48:51;7.57;;;7.00;;
57599;SDS011;43426;43.594;24.334;2023-05-29T04:51:20;7.38;;;6.38;;
57599;SDS011;43426;43.594;24.334;2023-05-29T04:53:46;7.97;;;6.93;;
57599;SDS011;43426;43.594;24.334;2023-05-29T04:56:12;7.28;;;6.57;;
57599;SDS011;43426;43.594;24.334;2023-05-29T04:58:39;7.35;;;6.72;;
57599;SDS011;43426;43.594;24.334;2023-05-29T05:01:06;8.10;;;6.78;;
57599;SDS011;43426;43.594;24.334;2023-05-29T05:03:33;8.00;;;7.25;;
57599;SDS011;43426;43.594;24.334;2023-05-29T05:06:02;7.13;;;6.43;;
57599;SDS011;43426;43.594;24.334;2023-05-29T05:08:28;7.55;;;6.93;;
57599;SDS011;43426;43.594;24.334;2023-05-29T05:10:54;8.80;;;6.30;;
57599;SDS011;43426;43.594;24.334;2023-05-29T05:13:20;6.15;;;5.65;;
57599;SDS011;43426;43.594;24.334;2023-05-29T05:15:45;7.18;;;6.53;;
57599;SDS011;43426;43.594;24.334;2023-05-29T05:18:11;11.15;;;6.53;;
57599;SDS011;43426;43.594;24.334;2023-05-29T05:20:36;8.32;;;5.85;;
57599;SDS011;43426;43.594;24.334;2023-05-29T05:23:02;9.00;;;5.80;;
57599;SDS011;43426;43.594;24.334;2023-05-29T05:25:27;7.57;;;6.50;;
57599;SDS011;43426;43.594;24.334;2023-05-29T05:27:53;6.25;;;5.38;;
57599;SDS011;43426;43.594;24.334;2023-05-29T05:30:18;6.95;;;6.25;;
57599;SDS011;43426;43.594;24.334;2023-05-29T05:32:43;10.52;;;6.22;;
57599;SDS011;43426;43.594;24.334;2023-05-29T05:35:09;6.95;;;6.22;;
57599;SDS011;43426;43.594;24.334;2023-05-29T05:37:36;8.90;;;5.85;;
57599;SDS011;43426;43.594;24.334;2023-05-29T05:40:02;5.97;;;5.47;;
57599;SDS011;43426;43.594;24.334;2023-05-29T05:42:28;6.88;;;5.85;;
57599;SDS011;43426;43.594;24.334;2023-05-29T05:44:54;6.43;;;5.82;;
57599;SDS011;43426;43.594;24.334;2023-05-29T05:47:19;6.95;;;5.85;;
57599;SDS011;43426;43.594;24.334;2023-05-29T05:49:45;9.38;;;6.10;;
57599;SDS011;43426;43.594;24.334;2023-05-29T05:52:10;6.55;;;5.72;;
57599;SDS011;43426;43.594;24.334;2023-05-29T05:54:36;8.43;;;5.95;;
57599;SDS011;43426;43.594;24.334;2023-05-29T05:57:01;6.43;;;5.82;;
57599;SDS011;43426;43.594;24.334;2023-05-29T05:59:28;6.13;;;5.72;;
57599;SDS011;43426;43.594;24.334;2023-05-29T06:01:53;7.53;;;6.82;;
57599;SDS011;43426;43.594;24.334;2023-05-29T06:04:19;5.85;;;5.35;;
57599;SDS011;43426;43.594;24.334;2023-05-29T06:06:45;5.80;;;5.30;;
57599;SDS011;43426;43.594;24.334;2023-05-29T06:09:11;5.97;;;5.43;;
57599;SDS011;43426;43.594;24.334;2023-05-29T06:11:36;6.03;;;5.53;;
57599;SDS011;43426;43.594;24.334;2023-05-29T06:14:02;5.75;;;5.25;;
57599;SDS011;43426;43.594;24.334;2023-05-29T06:16:28;6.10;;;5.53;;
57599;SDS011;43426;43.594;24.334;2023-05-29T06:18:54;6.43;;;5.82;;
57599;SDS011;43426;43.594;24.334;2023-05-29T06:21:20;6.15;;;5.65;;
57599;SDS011;43426;43.594;24.334;2023-05-29T06:23:45;5.88;;;5.45;;
57599;SDS011;43426;43.594;24.334;2023-05-29T06:26:11;6.22;;;5.50;;
57599;SDS011;43426;43.594;24.334;2023-05-29T06:28:37;5.95;;;5.40;;
57599;SDS011;43426;43.594;24.334;2023-05-29T06:31:03;6.25;;;5.65;;
57599;SDS011;43426;43.594;24.334;2023-05-29T06:33:28;5.85;;;5.30;;
57599;SDS011;43426;43.594;24.334;2023-05-29T06:35:55;6.63;;;6.00;;
57599;SDS011;43426;43.594;24.334;2023-05-29T06:38:20;6.50;;;6.00;;
57599;SDS011;43426;43.594;24.334;2023-05-29T06:40:46;5.40;;;5.00;;
57599;SDS011;43426;43.594;24.334;2023-05-29T06:43:11;5.57;;;5.07;;
57599;SDS011;43426;43.594;24.334;2023-05-29T06:45:37;6.18;;;5.47;;
57599;SDS011;43426;43.594;24.334;2023-05-29T06:48:03;5.70;;;5.30;;
57599;SDS011;43426;43.594;24.334;2023-05-29T06:50:28;7.97;;;5.22;;
57599;SDS011;43426;43.594;24.334;2023-05-29T06:52:54;5.97;;;5.50;;
57599;SDS011;43426;43.594;24.334;2023-05-29T06:55:19;5.40;;;5.00;;
57599;SDS011;43426;43.594;24.334;2023-05-29T06:57:47;5.90;;;5.40;;
57599;SDS011;43426;43.594;24.334;2023-05-29T07:00:13;5.85;;;5.40;;
57599;SDS011;43426;43.594;24.334;2023-05-29T07:02:39;6.00;;;5.40;;
57599;SDS011;43426;43.594;24.334;2023-05-29T07:05:04;6.32;;;5.70;;
57599;SDS011;43426;43.594;24.334;2023-05-29T07:07:30;5.85;;;5.45;;
57599;SDS011;43426;43.594;24.334;2023-05-29T07:09:56;5.57;;;5.15;;
57599;SDS011;43426;43.594;24.334;2023-05-29T07:12:22;5.70;;;5.20;;
57599;SDS011;43426;43.594;24.334;2023-05-29T07:14:49;5.60;;;5.10;;
57599;SDS011;43426;43.594;24.334;2023-05-29T07:17:15;6.00;;;4.88;;
57599;SDS011;43426;43.594;24.334;2023-05-29T07:19:40;5.03;;;4.63;;
57599;SDS011;43426;43.594;24.334;2023-05-29T07:22:06;4.95;;;4.55;;
57599;SDS011;43426;43.594;24.334;2023-05-29T07:24:31;4.38;;;4.07;;
57599;SDS011;43426;43.594;24.334;2023-05-29T07:27:06;4.68;;;4.28;;
57599;SDS011;43426;43.594;24.334;2023-05-29T07:29:32;5.70;;;5.10;;
57599;SDS011;43426;43.594;24.334;2023-05-29T07:31:57;4.78;;;3.80;;
57599;SDS011;43426;43.594;24.334;2023-05-29T07:34:23;4.30;;;3.85;;
57599;SDS011;43426;43.594;24.334;2023-05-29T07:36:59;3.92;;;3.38;;
57599;SDS011;43426;43.594;24.334;2023-05-29T07:39:27;4.80;;;4.25;;
57599;SDS011;43426;43.594;24.334;2023-05-29T07:41:52;5.97;;;3.78;;
57599;SDS011;43426;43.594;24.334;2023-05-29T07:44:18;4.32;;;3.80;;
57599;SDS011;43426;43.594;24.334;2023-05-29T07:46:44;4.22;;;3.83;;
57599;SDS011;43426;43.594;24.334;2023-05-29T07:49:10;5.68;;;3.92;;
57599;SDS011;43426;43.594;24.334;2023-05-29T07:51:35;5.93;;;3.88;;
57599;SDS011;43426;43.594;24.334;2023-05-29T07:54:01;3.85;;;3.55;;
57599;SDS011;43426;43.594;24.334;2023-05-29T07:56:27;4.38;;;4.07;;
57599;SDS011;43426;43.594;24.334;2023-05-29T07:58:52;4.63;;;4.18;;
57599;SDS011;43426;43.594;24.334;2023-05-29T08:01:20;5.53;;;4.18;;
57599;SDS011;43426;43.594;24.334;2023-05-29T08:03:46;4.63;;;4.25;;
57599;SDS011;43426;43.594;24.334;2023-05-29T08:06:12;4.43;;;4.03;;
57599;SDS011;43426;43.594;24.334;2023-05-29T08:08:38;4.43;;;3.97;;
57599;SDS011;43426;43.594;24.334;2023-05-29T08:11:03;4.78;;;4.38;;
57599;SDS011;43426;43.594;24.334;2023-05-29T08:13:29;5.80;;;4.38;;
57599;SDS011;43426;43.594;24.334;2023-05-29T08:15:55;3.92;;;3.42;;
57599;SDS011;43426;43.594;24.334;2023-05-29T08:18:21;5.43;;;4.63;;
57599;SDS011;43426;43.594;24.334;2023-05-29T08:20:46;4.40;;;4.00;;
57599;SDS011;43426;43.594;24.334;2023-05-29T08:23:12;3.65;;;3.35;;
57599;SDS011;43426;43.594;24.334;2023-05-29T08:25:38;3.95;;;3.65;;
57599;SDS011;43426;43.594;24.334;2023-05-29T08:28:03;4.47;;;4.07;;
57599;SDS011;43426;43.594;24.334;2023-05-29T08:30:28;4.43;;;3.80;;
57599;SDS011;43426;43.594;24.334;2023-05-29T08:32:54;4.32;;;3.88;;
57599;SDS011;43426;43.594;24.334;2023-05-29T08:35:19;4.43;;;3.78;;
57599;SDS011;43426;43.594;24.334;2023-05-29T08:37:45;4.00;;;3.65;;
57599;SDS011;43426;43.594;24.334;2023-05-29T08:40:10;4.88;;;3.75;;
57599;SDS011;43426;43.594;24.334;2023-05-29T08:42:39;4.13;;;3.70;;
57599;SDS011;43426;43.594;24.334;2023-05-29T08:45:12;4.20;;;3.55;;
57599;SDS011;43426;43.594;24.334;2023-05-29T08:47:38;4.40;;;4.00;;
57599;SDS011;43426;43.594;24.334;2023-05-29T08:50:05;4.00;;;3.70;;
57599;SDS011;43426;43.594;24.334;2023-05-29T08:52:33;3.92;;;3.47;;
57599;SDS011;43426;43.594;24.334;2023-05-29T08:55:02;5.20;;;4.18;;
57599;SDS011;43426;43.594;24.334;2023-05-29T08:57:28;4.60;;;4.22;;
57599;SDS011;43426;43.594;24.334;2023-05-29T08:59:54;4.47;;;4.18;;
57599;SDS011;43426;43.594;24.334;2023-05-29T09:02:21;3.85;;;3.55;;
57599;SDS011;43426;43.594;24.334;2023-05-29T09:04:47;5.13;;;3.80;;
57599;SDS011;43426;43.594;24.334;2023-05-29T09:07:17;4.60;;;4.20;;
57599;SDS011;43426;43.594;24.334;2023-05-29T09:09:44;5.45;;;3.72;;
57599;SDS011;43426;43.594;24.334;2023-05-29T09:12:11;4.45;;;4.05;;
57599;SDS011;43426;43.594;24.334;2023-05-29T09:14:37;4.75;;;4.35;;
57599;SDS011;43426;43.594;24.334;2023-05-29T09:17:04;5.25;;;4.60;;
57599;SDS011;43426;43.594;24.334;2023-05-29T09:19:32;5.55;;;5.00;;
57599;SDS011;43426;43.594;24.334;2023-05-29T09:22:04;4.75;;;4.28;;
57599;SDS011;43426;43.594;24.334;2023-05-29T09:24:40;6.75;;;4.25;;
57599;SDS011;43426;43.594;24.334;2023-05-29T09:27:08;5.13;;;4.72;;
57599;SDS011;43426;43.594;24.334;2023-05-29T09:29:38;6.30;;;4.43;;
57599;SDS011;43426;43.594;24.334;2023-05-29T09:32:09;5.20;;;4.80;;
57599;SDS011;43426;43.594;24.334;2023-05-29T09:34:36;5.80;;;4.47;;
57599;SDS011;43426;43.594;24.334;2023-05-29T09:37:05;4.82;;;4.43;;
57599;SDS011;43426;43.594;24.334;2023-05-29T09:42:11;4.53;;;4.22;;
57599;SDS011;43426;43.594;24.334;2023-05-29T09:44:39;4.65;;;4.25;;
57599;SDS011;43426;43.594;24.334;2023-05-29T09:47:05;4.40;;;3.97;;
57599;SDS011;43426;43.594;24.334;2023-05-29T09:49:31;8.48;;;4.18;;
57599;SDS011;43426;43.594;24.334;2023-05-29T09:51:57;4.20;;;3.90;;
57599;SDS011;43426;43.594;24.334;2023-05-29T09:54:29;5.38;;;3.70;;
57599;SDS011;43426;43.594;24.334;2023-05-29T09:56:55;4.10;;;3.75;;
57599;SDS011;43426;43.594;24.334;2023-05-29T09:59:23;4.30;;;3.95;;
57599;SDS011;43426;43.594;24.334;2023-05-29T10:01:49;4.40;;;4.05;;
57599;SDS011;43426;43.594;24.334;2023-05-29T10:04:26;3.95;;;3.65;;
57599;SDS011;43426;43.594;24.334;2023-05-29T10:06:52;5.70;;;3.60;;
57599;SDS011;43426;43.594;24.334;2023-05-29T10:09:21;3.63;;;3.33;;
57599;SDS011;43426;43.594;24.334;2023-05-29T10:11:51;3.83;;;3.53;;
57599;SDS011;43426;43.594;24.334;2023-05-29T10:14:20;4.72;;;3.70;;
57599;SDS011;43426;43.594;24.334;2023-05-29T10:16:48;4.30;;;3.90;;
57599;SDS011;43426;43.594;24.334;2023-05-29T10:19:19;5.97;;;3.85;;
57599;SDS011;43426;43.594;24.334;2023-05-29T10:21:53;3.40;;;3.17;;
57599;SDS011;43426;43.594;24.334;2023-05-29T10:24:21;3.22;;;2.97;;
57599;SDS011;43426;43.594;24.334;2023-05-29T10:26:47;3.88;;;3.58;;
57599;SDS011;43426;43.594;24.334;2023-05-29T10:29:18;4.10;;;3.25;;
57599;SDS011;43426;43.594;24.334;2023-05-29T10:39:50;3.20;;;2.97;;
57599;SDS011;43426;43.594;24.334;2023-05-29T10:42:58;3.25;;;2.70;;
57599;SDS011;43426;43.594;24.334;2023-05-29T10:45:48;3.58;;;2.92;;
57599;SDS011;43426;43.594;24.334;2023-05-29T10:48:39;3.35;;;2.72;;
57599;SDS011;43426;43.594;24.334;2023-05-29T10:50:45;4.15;;;2.75;;
57599;SDS011;43426;43.594;24.334;2023-05-29T10:53:15;4.53;;;2.40;;
57599;SDS011;43426;43.594;24.334;2023-05-29T10:55:42;3.40;;;2.65;;
57599;SDS011;43426;43.594;24.334;2023-05-29T10:58:12;3.00;;;2.67;;
57599;SDS011;43426;43.594;24.334;2023-05-29T11:00:43;3.53;;;3.22;;
57599;SDS011;43426;43.594;24.334;2023-05-29T11:03:20;3.23;;;2.93;;
57599;SDS011;43426;43.594;24.334;2023-05-29T11:08:34;4.40;;;2.85;;
57599;SDS011;43426;43.594;24.334;2023-05-29T11:11:01;2.85;;;2.65;;
57599;SDS011;43426;43.594;24.334;2023-05-29T11:13:33;2.85;;;2.65;;
57599;SDS011;43426;43.594;24.334;2023-05-29T11:18:51;3.38;;;2.70;;
57599;SDS011;43426;43.594;24.334;2023-05-29T11:21:33;3.00;;;2.80;;
57599;SDS011;43426;43.594;24.334;2023-05-29T11:24:21;3.13;;;2.85;;
57599;SDS011;43426;43.594;24.334;2023-05-29T11:26:52;2.80;;;2.60;;
57599;SDS011;43426;43.594;24.334;2023-05-29T11:29:22;3.10;;;2.53;;
57599;SDS011;43426;43.594;24.334;2023-05-29T11:31:48;3.75;;;3.45;;
57599;SDS011;43426;43.594;24.334;2023-05-29T11:34:19;2.60;;;2.40;;
57599;SDS011;43426;43.594;24.334;2023-05-29T11:36:47;3.15;;;2.42;;
57599;SDS011;43426;43.594;24.334;2023-05-29T11:39:13;4.22;;;2.83;;
57599;SDS011;43426;43.594;24.334;2023-05-29T11:41:39;6.10;;;3.03;;
57599;SDS011;43426;43.594;24.334;2023-05-29T11:44:05;3.80;;;2.67;;
57599;SDS011;43426;43.594;24.334;2023-05-29T11:46:31;3.97;;;2.58;;
57599;SDS011;43426;43.594;24.334;2023-05-29T11:49:00;3.13;;;2.92;;
57599;SDS011;43426;43.594;24.334;2023-05-29T11:51:26;3.50;;;2.80;;
57599;SDS011;43426;43.594;24.334;2023-05-29T11:53:52;3.67;;;3.00;;
57599;SDS011;43426;43.594;24.334;2023-05-29T11:56:23;3.55;;;3.25;;
57599;SDS011;43426;43.594;24.334;2023-05-29T11:58:50;3.25;;;2.95;;
57599;SDS011;43426;43.594;24.334;2023-05-29T12:01:16;3.22;;;2.88;;
57599;SDS011;43426;43.594;24.334;2023-05-29T12:03:44;3.25;;;2.95;;
57599;SDS011;43426;43.594;24.334;2023-05-29T12:06:09;2.80;;;2.55;;
57599;SDS011;43426;43.594;24.334;2023-05-29T12:08:38;3.42;;;2.80;;
57599;SDS011;43426;43.594;24.334;2023-05-29T12:11:04;2.95;;;2.40;;
57599;SDS011;43426;43.594;24.334;2023-05-29T12:13:30;2.88;;;2.67;;
57599;SDS011;43426;43.594;24.334;2023-05-29T12:15:59;3.33;;;3.03;;
57599;SDS011;43426;43.594;24.334;2023-05-29T12:18:27;2.72;;;2.53;;
57599;SDS011;43426;43.594;24.334;2023-05-29T12:20:58;2.67;;;2.47;;
57599;SDS011;43426;43.594;24.334;2023-05-29T12:23:24;2.70;;;2.50;;
57599;SDS011;43426;43.594;24.334;2023-05-29T12:25:51;2.80;;;2.55;;
57599;SDS011;43426;43.594;24.334;2023-05-29T12:28:18;2.90;;;2.65;;
57599;SDS011;43426;43.594;24.334;2023-05-29T12:30:44;3.05;;;2.70;;
57599;SDS011;43426;43.594;24.334;2023-05-29T12:33:29;3.00;;;2.42;;
57599;SDS011;43426;43.594;24.334;2023-05-29T12:38:32;2.88;;;2.53;;
57599;SDS011;43426;43.594;24.334;2023-05-29T12:40:57;3.30;;;3.00;;
57599;SDS011;43426;43.594;24.334;2023-05-29T12:43:23;3.33;;;2.17;;
57599;SDS011;43426;43.594;24.334;2023-05-29T12:45:53;2.72;;;2.53;;
57599;SDS011;43426;43.594;24.334;2023-05-29T12:48:26;2.60;;;2.35;;
57599;SDS011;43426;43.594;24.334;2023-05-29T12:50:52;2.75;;;2.53;;
57599;SDS011;43426;43.594;24.334;2023-05-29T12:53:17;3.15;;;2.65;;
57599;SDS011;43426;43.594;24.334;2023-05-29T12:55:43;2.65;;;2.45;;
57599;SDS011;43426;43.594;24.334;2023-05-29T12:58:14;3.58;;;2.58;;
57599;SDS011;43426;43.594;24.334;2023-05-29T13:00:45;4.47;;;2.07;;
57599;SDS011;43426;43.594;24.334;2023-05-29T13:03:11;2.83;;;2.63;;
57599;SDS011;43426;43.594;24.334;2023-05-29T13:05:36;2.72;;;2.53;;
57599;SDS011;43426;43.594;24.334;2023-05-29T13:08:02;3.35;;;2.83;;
57599;SDS011;43426;43.594;24.334;2023-05-29T13:10:30;4.03;;;2.75;;
57599;SDS011;43426;43.594;24.334;2023-05-29T13:12:55;3.55;;;3.25;;
57599;SDS011;43426;43.594;24.334;2023-05-29T13:15:23;4.00;;;2.88;;
57599;SDS011;43426;43.594;24.334;2023-05-29T13:17:50;2.50;;;2.30;;
57599;SDS011;43426;43.594;24.334;2023-05-29T13:20:18;3.10;;;2.80;;
57599;SDS011;43426;43.594;24.334;2023-05-29T13:22:45;2.80;;;2.60;;
57599;SDS011;43426;43.594;24.334;2023-05-29T13:25:13;6.57;;;3.25;;
57599;SDS011;43426;43.594;24.334;2023-05-29T13:27:40;5.00;;;3.97;;
57599;SDS011;43426;43.594;24.334;2023-05-29T13:30:08;4.55;;;4.05;;
57599;SDS011;43426;43.594;24.334;2023-05-29T13:32:35;4.75;;;4.35;;
57599;SDS011;43426;43.594;24.334;2023-05-29T13:35:01;3.92;;;3.53;;
57599;SDS011;43426;43.594;24.334;2023-05-29T13:37:27;3.85;;;3.55;;
57599;SDS011;43426;43.594;24.334;2023-05-29T13:39:52;5.63;;;4.40;;
57599;SDS011;43426;43.594;24.334;2023-05-29T13:42:18;4.53;;;4.13;;
57599;SDS011;43426;43.594;24.334;2023-05-29T13:44:45;5.60;;;4.30;;
57599;SDS011;43426;43.594;24.334;2023-05-29T13:47:11;4.53;;;4.22;;
57599;SDS011;43426;43.594;24.334;2023-05-29T13:49:36;4.03;;;3.72;;
57599;SDS011;43426;43.594;24.334;2023-05-29T13:52:02;5.28;;;3.67;;
57599;SDS011;43426;43.594;24.334;2023-05-29T13:54:28;5.55;;;3.45;;
57599;SDS011;43426;43.594;24.334;2023-05-29T13:57:03;5.80;;;3.35;;
57599;SDS011;43426;43.594;24.334;2023-05-29T13:59:31;5.15;;;3.30;;
57599;SDS011;43426;43.594;24.334;2023-05-29T14:01:57;3.78;;;3.35;;
57599;SDS011;43426;43.594;24.334;2023-05-29T14:04:23;4.57;;;3.25;;
57599;SDS011;43426;43.594;24.334;2023-05-29T14:06:49;6.85;;;3.47;;
57599;SDS011;43426;43.594;24.334;2023-05-29T14:09:14;4.18;;;3.35;;
57599;SDS011;43426;43.594;24.334;2023-05-29T14:11:40;4.40;;;3.28;;
57599;SDS011;43426;43.594;24.334;2023-05-29T14:14:05;4.00;;;3.70;;
57599;SDS011;43426;43.594;24.334;2023-05-29T14:16:32;6.82;;;3.90;;
57599;SDS011;43426;43.594;24.334;2023-05-29T14:18:58;5.53;;;5.13;;
57599;SDS011;43426;43.594;24.334;2023-05-29T14:21:24;4.88;;;4.25;;
57599;SDS011;43426;43.594;24.334;2023-05-29T14:23:49;7.45;;;4.70;;
57599;SDS011;43426;43.594;24.334;2023-05-29T14:26:15;5.38;;;4.85;;
57599;SDS011;43426;43.594;24.334;2023-05-29T14:28:40;4.60;;;4.15;;
57599;SDS011;43426;43.594;24.334;2023-05-29T14:31:06;4.95;;;3.80;;
57599;SDS011;43426;43.594;24.334;2023-05-29T14:33:32;4.78;;;4.32;;
57599;SDS011;43426;43.594;24.334;2023-05-29T14:35:57;3.88;;;3.58;;
57599;SDS011;43426;43.594;24.334;2023-05-29T14:38:23;3.55;;;3.25;;
57599;SDS011;43426;43.594;24.334;2023-05-29T14:40:49;2.85;;;2.65;;
57599;SDS011;43426;43.594;24.334;2023-05-29T14:43:14;4.43;;;3.30;;
57599;SDS011;43426;43.594;24.334;2023-05-29T14:45:40;6.63;;;3.28;;
57599;SDS011;43426;43.594;24.334;2023-05-29T14:48:05;3.40;;;2.83;;
57599;SDS011;43426;43.594;24.334;2023-05-29T14:50:31;3.75;;;2.53;;
57599;SDS011;43426;43.594;24.334;2023-05-29T14:52:56;2.75;;;2.53;;
57599;SDS011;43426;43.594;24.334;2023-05-29T14:55:21;2.80;;;2.60;;
57599;SDS011;43426;43.594;24.334;2023-05-29T14:57:50;3.38;;;3.17;;
57599;SDS011;43426;43.594;24.334;2023-05-29T15:00:15;3.78;;;2.90;;
57599;SDS011;43426;43.594;24.334;2023-05-29T15:02:41;3.25;;;2.78;;
57599;SDS011;43426;43.594;24.334;2023-05-29T15:05:06;2.90;;;2.60;;
57599;SDS011;43426;43.594;24.334;2023-05-29T15:07:32;3.03;;;2.67;;
57599;SDS011;43426;43.594;24.334;2023-05-29T15:10:02;3.20;;;2.88;;
57599;SDS011;43426;43.594;24.334;2023-05-29T15:12:29;4.70;;;2.88;;
57599;SDS011;43426;43.594;24.334;2023-05-29T15:14:54;3.35;;;3.10;;
57599;SDS011;43426;43.594;24.334;2023-05-29T15:17:20;2.85;;;2.65;;
57599;SDS011;43426;43.594;24.334;2023-05-29T15:19:45;2.92;;;2.72;;
57599;SDS011;43426;43.594;24.334;2023-05-29T15:22:11;6.18;;;2.78;;
57599;SDS011;43426;43.594;24.334;2023-05-29T15:24:36;3.13;;;2.83;;
57599;SDS011;43426;43.594;24.334;2023-05-29T15:27:02;3.05;;;2.85;;
57599;SDS011;43426;43.594;24.334;2023-05-29T15:29:31;3.30;;;2.97;;
57599;SDS011;43426;43.594;24.334;2023-05-29T15:31:58;3.95;;;2.95;;
57599;SDS011;43426;43.594;24.334;2023-05-29T15:34:23;3.08;;;2.78;;
57599;SDS011;43426;43.594;24.334;2023-05-29T15:36:49;3.95;;;3.33;;
57599;SDS011;43426;43.594;24.334;2023-05-29T15:39:15;2.83;;;2.63;;
57599;SDS011;43426;43.594;24.334;2023-05-29T15:41:41;3.33;;;3.10;;
57599;SDS011;43426;43.594;24.334;2023-05-29T15:44:06;4.03;;;3.70;;
57599;SDS011;43426;43.594;24.334;2023-05-29T15:46:31;3.88;;;3.55;;
57599;SDS011;43426;43.594;24.334;2023-05-29T15:48:57;4.80;;;3.38;;
57599;SDS011;43426;43.594;24.334;2023-05-29T15:51:22;4.13;;;3.70;;
57599;SDS011;43426;43.594;24.334;2023-05-29T15:53:48;4.45;;;3.65;;
57599;SDS011;43426;43.594;24.334;2023-05-29T15:56:13;3.45;;;3.15;;
57599;SDS011;43426;43.594;24.334;2023-05-29T15:58:39;3.58;;;3.38;;
57599;SDS011;43426;43.594;24.334;2023-05-29T16:01:04;3.20;;;2.90;;
57599;SDS011;43426;43.594;24.334;2023-05-29T16:03:30;3.67;;;3.20;;
57599;SDS011;43426;43.594;24.334;2023-05-29T16:05:55;3.90;;;3.03;;
57599;SDS011;43426;43.594;24.334;2023-05-29T16:08:21;3.63;;;2.70;;
57599;SDS011;43426;43.594;24.334;2023-05-29T16:10:47;3.50;;;3.30;;
57599;SDS011;43426;43.594;24.334;2023-05-29T16:13:13;3.88;;;3.50;;
57599;SDS011;43426;43.594;24.334;2023-05-29T16:15:38;4.00;;;3.60;;
57599;SDS011;43426;43.594;24.334;2023-05-29T16:18:06;3.92;;;3.45;;
57599;SDS011;43426;43.594;24.334;2023-05-29T16:20:33;4.20;;;3.83;;
57599;SDS011;43426;43.594;24.334;2023-05-29T16:22:59;4.60;;;3.50;;
57599;SDS011;43426;43.594;24.334;2023-05-29T16:25:24;4.22;;;3.90;;
57599;SDS011;43426;43.594;24.334;2023-05-29T16:27:50;6.13;;;4.18;;
57599;SDS011;43426;43.594;24.334;2023-05-29T16:30:15;7.45;;;3.60;;
57599;SDS011;43426;43.594;24.334;2023-05-29T16:32:41;4.80;;;3.85;;
57599;SDS011;43426;43.594;24.334;2023-05-29T16:35:06;4.00;;;3.50;;
57599;SDS011;43426;43.594;24.334;2023-05-29T16:37:32;4.68;;;3.15;;